Austin Bergstrom International Airport
KAUS : now visible

Airfield :











YOU CAN JOIN US ON...

 
LOGIN :

Register | Disclaimer

   EN    FR    IT 

 









Legend :    VFR   Marginal VFR   IFR   Intensive IFR   Very Intensive IFR
Visi :
Ceiling :
>= 8 km
>= 3000ft
5 to 8 km
1000 to 3000 ft
1500m to 5 km
500 to 1000 ft
800 to 1500m
200 to 500 ft
< 800m
< 200 ft
Symbols :   Thunderstorms  Fog  Heavy snow  Heavy precipitations  Wind > 20 kt






- Airport Elevation : 542 ft
- IATA code : AUS


KAUS - Austin Bergstrom International

CURRENT METAR :
  • 130453Z 00000KT 10SM CLR 05/04 A3007 RMK AO2 SLP185 T00500044

EXPIRED METARs :
  • 130353Z 27003KT 10SM FEW200 07/06 A3009 RMK AO2 SLP192 T00720061
  • 130253Z 20003KT 10SM SCT200 09/07 A3008 RMK AO2 SLP190 T00890067 58007

TAF KAUS
Valid from the 13 at 00:00 until the 14 at 06:00 UTC


122320Z 1300/1406 18009KT P6SM SCT250
FM130500 22007KT P6SM FEW250
FM131600 25009KT P6SM SKC
FM132100 28011KT P6SM SKC
FM140000 33004KT P6SM SKC



MET'MAP, your aeronautical weather chart ! - Copyright ORBIFLY December 2007 - Disclaimer

ORBIFLY MET'MAP TEAM :

Programming & Development : Alexandra Zaïnal
Concept & original design : Baudouin d'Aumeries
Assistance for programming : Marc-Olivier Méhu
Technical & hardware support : Manuel Goepfert

Contact : metmap@orbifly.com




SOURCES & CREDITS :

   NOAA       Earth
Advisory